1/3 a 11/3 - Refrescada y luego otra vez calor N, húmedo centro. Lluvias y tormentas C y N.

Avatar de Usuario
Diecha
Mensajes: 20023
Registrado: Jue Ago 25, 2011 9:31 pm
Ubicación: Lomas de Zamora

Re: 1/3 a 10/3 - Refrescada y luego otra vez calor N, húmedo centro. Lluvias y tormentas C y N.

Mensaje por Diecha »

- Iguazú 18 hs: SARI 102100Z 05006KT 9999 FEW030TCU OVC200 24/22 Q1007 RETS

Imagen
Avatar de Usuario
Ale de Castelar
Mensajes: 32509
Registrado: Sab Mar 03, 2012 12:25 pm
Ubicación: Caballito

Re: 1/3 a 10/3 - Refrescada y luego otra vez calor N, húmedo centro. Lluvias y tormentas C y N.

Mensaje por Ale de Castelar »

El Dorado

Avatar de Usuario
Diecha
Mensajes: 20023
Registrado: Jue Ago 25, 2011 9:31 pm
Ubicación: Lomas de Zamora

Re: 1/3 a 10/3 - Refrescada y luego otra vez calor N, húmedo centro. Lluvias y tormentas C y N.

Mensaje por Diecha »



Imagen
Avatar de Usuario
Diecha
Mensajes: 20023
Registrado: Jue Ago 25, 2011 9:31 pm
Ubicación: Lomas de Zamora

Re: 1/3 a 10/3 - Refrescada y luego otra vez calor N, húmedo centro. Lluvias y tormentas C y N.

Mensaje por Diecha »



Imagen
Imagen
Avatar de Usuario
Ernest
Mensajes: 16132
Registrado: Vie Jul 17, 2009 10:54 pm
Ubicación: Balvanera, CABA

Re: 1/3 a 10/3 - Refrescada y luego otra vez calor N, húmedo centro. Lluvias y tormentas C y N.

Mensaje por Ernest »

T 18,3 - Th 13,8 - Td 9,9 - HR 58 % en mi ventana, secó notablemente el ambiente.
Extiendo el thread hasta mañana y ahí me fijo mejor qué onda los modelos.
Did you want to talk about the weather, or were you just making chitchat?

Twitter: @ErnestoAtmoII
Avatar de Usuario
Diecha
Mensajes: 20023
Registrado: Jue Ago 25, 2011 9:31 pm
Ubicación: Lomas de Zamora

Re: 1/3 a 11/3 - Refrescada y luego otra vez calor N, húmedo centro. Lluvias y tormentas C y N.

Mensaje por Diecha »



Imagen
Última edición por Diecha el Vie Mar 11, 2022 12:15 am, editado 1 vez en total.
Avatar de Usuario
NicodWilde
Mensajes: 17390
Registrado: Mié Ago 01, 2012 7:34 pm
Ubicación: Wilde, Buenos Aires

Re: 1/3 a 11/3 - Refrescada y luego otra vez calor N, húmedo centro. Lluvias y tormentas C y N.

Mensaje por NicodWilde »

17.2º temperatura en caída
No necesito que sea fácil, sólo que sea posible.

Nico
Avatar de Usuario
Diecha
Mensajes: 20023
Registrado: Jue Ago 25, 2011 9:31 pm
Ubicación: Lomas de Zamora

Re: 1/3 a 11/3 - Refrescada y luego otra vez calor N, húmedo centro. Lluvias y tormentas C y N.

Mensaje por Diecha »

- Río Grande 00 hs: SAWE 110300Z 34019KT 9999 SCT040 10/07 Q1015
- Ushuaia 00 hs: SAWH 110300Z 36015KT 9999 SCT040 SCT080 12/04 Q1009

Imagen
Imagen
Avatar de Usuario
Ernest
Mensajes: 16132
Registrado: Vie Jul 17, 2009 10:54 pm
Ubicación: Balvanera, CABA

Re: 1/3 a 11/3 - Refrescada y luego otra vez calor N, húmedo centro. Lluvias y tormentas C y N.

Mensaje por Ernest »

T 16,7 - Th 14,0 - Td 11,8 - HR 73 % en el arranque del día en mi ventana.
Did you want to talk about the weather, or were you just making chitchat?

Twitter: @ErnestoAtmoII
Avatar de Usuario
NicodWilde
Mensajes: 17390
Registrado: Mié Ago 01, 2012 7:34 pm
Ubicación: Wilde, Buenos Aires

Re: 1/3 a 11/3 - Refrescada y luego otra vez calor N, húmedo centro. Lluvias y tormentas C y N.

Mensaje por NicodWilde »

No está tan fresca la mañana, la temperatura se estancó pasadas las 4 am y ni siquiera logró bajar de 14 en ninguna horaria. Con buzo liviano a mano está genial, a la tarde sube a 24.
No necesito que sea fácil, sólo que sea posible.

Nico